sensor_id;sensor_type;location;lat;lon;timestamp;P1;durP1;ratioP1;P2;durP2;ratioP2
64875;SDS011;51369;49.862;9.908;2023-04-25T00:01:59;7.35;;;4.90;;
64875;SDS011;51369;49.862;9.908;2023-04-25T00:04:24;6.10;;;4.57;;
64875;SDS011;51369;49.862;9.908;2023-04-25T00:06:53;6.70;;;5.07;;
64875;SDS011;51369;49.862;9.908;2023-04-25T00:09:19;7.18;;;4.97;;
64875;SDS011;51369;49.862;9.908;2023-04-25T00:11:44;5.57;;;4.35;;
64875;SDS011;51369;49.862;9.908;2023-04-25T00:14:10;6.25;;;4.97;;
64875;SDS011;51369;49.862;9.908;2023-04-25T00:16:35;6.25;;;5.10;;
64875;SDS011;51369;49.862;9.908;2023-04-25T00:19:01;6.75;;;4.53;;
64875;SDS011;51369;49.862;9.908;2023-04-25T00:21:28;7.20;;;4.97;;
64875;SDS011;51369;49.862;9.908;2023-04-25T00:23:53;5.82;;;4.55;;
64875;SDS011;51369;49.862;9.908;2023-04-25T00:26:19;7.13;;;4.97;;
64875;SDS011;51369;49.862;9.908;2023-04-25T00:28:45;7.53;;;5.00;;
64875;SDS011;51369;49.862;9.908;2023-04-25T00:31:11;8.05;;;4.60;;
64875;SDS011;51369;49.862;9.908;2023-04-25T00:33:37;6.45;;;4.90;;
64875;SDS011;51369;49.862;9.908;2023-04-25T00:36:02;8.10;;;5.05;;
64875;SDS011;51369;49.862;9.908;2023-04-25T00:38:28;6.68;;;4.78;;
64875;SDS011;51369;49.862;9.908;2023-04-25T00:40:53;9.00;;;5.00;;
64875;SDS011;51369;49.862;9.908;2023-04-25T00:43:20;5.80;;;4.80;;
64875;SDS011;51369;49.862;9.908;2023-04-25T00:45:46;6.18;;;4.65;;
64875;SDS011;51369;49.862;9.908;2023-04-25T00:48:13;8.00;;;5.10;;
64875;SDS011;51369;49.862;9.908;2023-04-25T00:50:39;6.95;;;5.10;;
64875;SDS011;51369;49.862;9.908;2023-04-25T00:53:05;8.50;;;5.28;;
64875;SDS011;51369;49.862;9.908;2023-04-25T00:55:31;11.20;;;5.13;;
64875;SDS011;51369;49.862;9.908;2023-04-25T00:57:57;9.43;;;5.35;;
64875;SDS011;51369;49.862;9.908;2023-04-25T01:00:23;6.80;;;5.35;;
64875;SDS011;51369;49.862;9.908;2023-04-25T01:02:49;7.28;;;5.00;;
64875;SDS011;51369;49.862;9.908;2023-04-25T01:05:15;6.95;;;5.22;;
64875;SDS011;51369;49.862;9.908;2023-04-25T01:07:41;6.72;;;5.18;;
64875;SDS011;51369;49.862;9.908;2023-04-25T01:10:06;6.60;;;4.95;;
64875;SDS011;51369;49.862;9.908;2023-04-25T01:12:33;6.93;;;5.28;;
64875;SDS011;51369;49.862;9.908;2023-04-25T01:14:59;9.07;;;4.90;;
64875;SDS011;51369;49.862;9.908;2023-04-25T01:17:25;8.80;;;5.40;;
64875;SDS011;51369;49.862;9.908;2023-04-25T01:19:50;7.53;;;5.40;;
64875;SDS011;51369;49.862;9.908;2023-04-25T01:22:16;10.40;;;6.50;;
64875;SDS011;51369;49.862;9.908;2023-04-25T01:24:42;6.53;;;5.40;;
64875;SDS011;51369;49.862;9.908;2023-04-25T01:27:08;6.53;;;5.00;;
64875;SDS011;51369;49.862;9.908;2023-04-25T01:29:34;9.45;;;6.18;;
64875;SDS011;51369;49.862;9.908;2023-04-25T01:32:01;8.80;;;5.47;;
64875;SDS011;51369;49.862;9.908;2023-04-25T01:34:26;11.32;;;5.97;;
64875;SDS011;51369;49.862;9.908;2023-04-25T01:36:52;8.80;;;5.28;;
64875;SDS011;51369;49.862;9.908;2023-04-25T01:39:18;6.68;;;4.93;;
64875;SDS011;51369;49.862;9.908;2023-04-25T01:41:45;6.03;;;4.78;;
64875;SDS011;51369;49.862;9.908;2023-04-25T01:44:11;5.03;;;4.53;;
64875;SDS011;51369;49.862;9.908;2023-04-25T01:46:37;6.70;;;5.15;;
64875;SDS011;51369;49.862;9.908;2023-04-25T01:49:03;7.68;;;4.20;;
64875;SDS011;51369;49.862;9.908;2023-04-25T01:51:29;6.72;;;4.55;;
64875;SDS011;51369;49.862;9.908;2023-04-25T01:53:55;4.80;;;4.30;;
64875;SDS011;51369;49.862;9.908;2023-04-25T01:56:22;5.63;;;4.35;;
64875;SDS011;51369;49.862;9.908;2023-04-25T01:58:47;5.53;;;4.30;;
64875;SDS011;51369;49.862;9.908;2023-04-25T02:01:19;6.40;;;4.15;;
64875;SDS011;51369;49.862;9.908;2023-04-25T02:03:56;5.82;;;4.63;;
64875;SDS011;51369;49.862;9.908;2023-04-25T02:06:26;6.32;;;4.00;;
64875;SDS011;51369;49.862;9.908;2023-04-25T02:08:55;5.25;;;4.00;;
64875;SDS011;51369;49.862;9.908;2023-04-25T02:11:21;6.18;;;4.28;;
64875;SDS011;51369;49.862;9.908;2023-04-25T02:14:18;6.35;;;3.92;;
64875;SDS011;51369;49.862;9.908;2023-04-25T02:16:53;4.70;;;3.55;;
64875;SDS011;51369;49.862;9.908;2023-04-25T02:19:19;4.47;;;3.85;;
64875;SDS011;51369;49.862;9.908;2023-04-25T02:21:46;7.25;;;3.58;;
64875;SDS011;51369;49.862;9.908;2023-04-25T02:24:11;4.47;;;3.67;;
64875;SDS011;51369;49.862;9.908;2023-04-25T02:26:37;3.53;;;3.20;;
64875;SDS011;51369;49.862;9.908;2023-04-25T02:29:06;5.65;;;3.70;;
64875;SDS011;51369;49.862;9.908;2023-04-25T02:31:32;6.93;;;3.80;;
64875;SDS011;51369;49.862;9.908;2023-04-25T02:33:57;4.50;;;3.75;;
64875;SDS011;51369;49.862;9.908;2023-04-25T02:36:22;4.63;;;3.58;;
64875;SDS011;51369;49.862;9.908;2023-04-25T02:38:49;5.45;;;4.15;;
64875;SDS011;51369;49.862;9.908;2023-04-25T02:41:15;6.22;;;4.15;;
64875;SDS011;51369;49.862;9.908;2023-04-25T02:43:41;4.60;;;3.70;;
64875;SDS011;51369;49.862;9.908;2023-04-25T02:46:06;6.20;;;4.63;;
64875;SDS011;51369;49.862;9.908;2023-04-25T02:48:32;4.53;;;3.83;;
64875;SDS011;51369;49.862;9.908;2023-04-25T02:50:57;5.40;;;3.92;;
64875;SDS011;51369;49.862;9.908;2023-04-25T02:53:23;5.20;;;4.00;;
64875;SDS011;51369;49.862;9.908;2023-04-25T02:55:51;6.95;;;4.50;;
64875;SDS011;51369;49.862;9.908;2023-04-25T02:58:17;7.05;;;4.03;;
64875;SDS011;51369;49.862;9.908;2023-04-25T03:00:46;4.95;;;4.00;;
64875;SDS011;51369;49.862;9.908;2023-04-25T03:03:12;5.05;;;4.18;;
64875;SDS011;51369;49.862;9.908;2023-04-25T03:05:37;6.38;;;4.47;;
64875;SDS011;51369;49.862;9.908;2023-04-25T03:08:02;4.88;;;4.10;;
64875;SDS011;51369;49.862;9.908;2023-04-25T03:10:30;6.90;;;4.85;;
64875;SDS011;51369;49.862;9.908;2023-04-25T03:13:00;6.53;;;4.65;;
64875;SDS011;51369;49.862;9.908;2023-04-25T03:15:25;5.30;;;4.05;;
64875;SDS011;51369;49.862;9.908;2023-04-25T03:17:51;7.68;;;4.43;;
64875;SDS011;51369;49.862;9.908;2023-04-25T03:20:17;7.85;;;4.53;;
64875;SDS011;51369;49.862;9.908;2023-04-25T03:22:42;7.85;;;4.28;;
64875;SDS011;51369;49.862;9.908;2023-04-25T03:25:08;5.72;;;4.28;;
64875;SDS011;51369;49.862;9.908;2023-04-25T03:27:33;5.53;;;4.00;;
64875;SDS011;51369;49.862;9.908;2023-04-25T03:29:59;6.95;;;3.90;;
64875;SDS011;51369;49.862;9.908;2023-04-25T03:32:24;7.65;;;4.80;;
64875;SDS011;51369;49.862;9.908;2023-04-25T03:34:50;5.72;;;3.92;;
64875;SDS011;51369;49.862;9.908;2023-04-25T03:37:15;4.50;;;3.97;;
64875;SDS011;51369;49.862;9.908;2023-04-25T03:39:41;7.18;;;3.97;;
64875;SDS011;51369;49.862;9.908;2023-04-25T03:42:06;4.57;;;3.78;;
64875;SDS011;51369;49.862;9.908;2023-04-25T03:44:32;5.05;;;4.13;;
64875;SDS011;51369;49.862;9.908;2023-04-25T03:46:58;6.35;;;3.78;;
64875;SDS011;51369;49.862;9.908;2023-04-25T03:49:24;5.50;;;4.28;;
64875;SDS011;51369;49.862;9.908;2023-04-25T03:51:59;7.82;;;4.38;;
64875;SDS011;51369;49.862;9.908;2023-04-25T03:54:26;7.95;;;4.80;;
64875;SDS011;51369;49.862;9.908;2023-04-25T03:57:01;9.88;;;5.93;;
64875;SDS011;51369;49.862;9.908;2023-04-25T03:59:28;7.22;;;4.85;;
64875;SDS011;51369;49.862;9.908;2023-04-25T04:01:54;6.63;;;4.78;;
64875;SDS011;51369;49.862;9.908;2023-04-25T04:04:20;6.63;;;4.72;;
64875;SDS011;51369;49.862;9.908;2023-04-25T04:06:46;6.88;;;5.53;;
64875;SDS011;51369;49.862;9.908;2023-04-25T04:09:16;6.45;;;5.28;;
64875;SDS011;51369;49.862;9.908;2023-04-25T04:11:43;8.40;;;5.93;;
64875;SDS011;51369;49.862;9.908;2023-04-25T04:14:08;9.40;;;5.93;;
64875;SDS011;51369;49.862;9.908;2023-04-25T04:16:37;10.43;;;5.85;;
64875;SDS011;51369;49.862;9.908;2023-04-25T04:19:02;8.32;;;6.05;;
64875;SDS011;51369;49.862;9.908;2023-04-25T04:21:28;9.02;;;6.65;;
64875;SDS011;51369;49.862;9.908;2023-04-25T04:23:53;8.50;;;6.35;;
64875;SDS011;51369;49.862;9.908;2023-04-25T04:26:20;8.65;;;6.18;;
64875;SDS011;51369;49.862;9.908;2023-04-25T04:29:03;8.75;;;5.93;;
64875;SDS011;51369;49.862;9.908;2023-04-25T04:31:48;9.73;;;6.18;;
64875;SDS011;51369;49.862;9.908;2023-04-25T04:34:15;7.88;;;6.32;;
64875;SDS011;51369;49.862;9.908;2023-04-25T04:36:44;11.68;;;7.18;;
64875;SDS011;51369;49.862;9.908;2023-04-25T04:39:11;12.68;;;7.18;;
64875;SDS011;51369;49.862;9.908;2023-04-25T04:41:47;8.52;;;6.75;;
64875;SDS011;51369;49.862;9.908;2023-04-25T04:44:39;9.45;;;7.38;;
64875;SDS011;51369;49.862;9.908;2023-04-25T04:47:21;10.30;;;8.07;;
64875;SDS011;51369;49.862;9.908;2023-04-25T04:50:11;11.38;;;7.93;;
64875;SDS011;51369;49.862;9.908;2023-04-25T04:52:55;10.02;;;7.88;;
64875;SDS011;51369;49.862;9.908;2023-04-25T04:55:33;9.45;;;7.60;;
64875;SDS011;51369;49.862;9.908;2023-04-25T04:58:12;10.90;;;7.80;;
64875;SDS011;51369;49.862;9.908;2023-04-25T05:00:46;12.90;;;8.18;;
64875;SDS011;51369;49.862;9.908;2023-04-25T05:03:50;12.32;;;8.45;;
64875;SDS011;51369;49.862;9.908;2023-04-25T05:06:42;8.85;;;7.32;;
64875;SDS011;51369;49.862;9.908;2023-04-25T05:09:38;11.50;;;7.53;;
64875;SDS011;51369;49.862;9.908;2023-04-25T05:12:08;11.18;;;8.35;;
64875;SDS011;51369;49.862;9.908;2023-04-25T05:15:09;11.55;;;8.00;;
64875;SDS011;51369;49.862;9.908;2023-04-25T05:17:54;11.95;;;8.88;;
64875;SDS011;51369;49.862;9.908;2023-04-25T05:20:22;11.60;;;8.95;;
64875;SDS011;51369;49.862;9.908;2023-04-25T05:23:10;15.00;;;9.75;;
64875;SDS011;51369;49.862;9.908;2023-04-25T05:25:45;13.98;;;8.95;;
64875;SDS011;51369;49.862;9.908;2023-04-25T05:28:25;14.98;;;9.85;;
64875;SDS011;51369;49.862;9.908;2023-04-25T05:31:14;14.65;;;8.85;;
64875;SDS011;51369;49.862;9.908;2023-04-25T05:33:53;15.88;;;9.98;;
64875;SDS011;51369;49.862;9.908;2023-04-25T05:36:19;15.75;;;10.32;;
64875;SDS011;51369;49.862;9.908;2023-04-25T05:38:45;12.45;;;9.80;;
64875;SDS011;51369;49.862;9.908;2023-04-25T05:41:37;14.93;;;10.93;;
64875;SDS011;51369;49.862;9.908;2023-04-25T05:44:40;17.77;;;9.73;;
64875;SDS011;51369;49.862;9.908;2023-04-25T05:47:20;14.75;;;9.73;;
64875;SDS011;51369;49.862;9.908;2023-04-25T05:50:02;14.82;;;9.73;;
64875;SDS011;51369;49.862;9.908;2023-04-25T05:52:53;15.43;;;10.70;;
64875;SDS011;51369;49.862;9.908;2023-04-25T05:55:51;16.45;;;10.98;;
64875;SDS011;51369;49.862;9.908;2023-04-25T05:58:22;17.30;;;10.65;;
64875;SDS011;51369;49.862;9.908;2023-04-25T06:00:48;14.95;;;10.50;;
64875;SDS011;51369;49.862;9.908;2023-04-25T06:03:13;18.25;;;12.25;;
64875;SDS011;51369;49.862;9.908;2023-04-25T06:05:42;15.00;;;10.68;;
64875;SDS011;51369;49.862;9.908;2023-04-25T06:08:08;18.50;;;10.63;;
64875;SDS011;51369;49.862;9.908;2023-04-25T06:10:33;17.52;;;10.77;;
64875;SDS011;51369;49.862;9.908;2023-04-25T06:12:59;18.05;;;10.98;;
64875;SDS011;51369;49.862;9.908;2023-04-25T06:15:25;16.63;;;10.18;;
64875;SDS011;51369;49.862;9.908;2023-04-25T06:17:50;19.45;;;9.98;;
64875;SDS011;51369;49.862;9.908;2023-04-25T06:20:16;16.50;;;10.10;;
64875;SDS011;51369;49.862;9.908;2023-04-25T06:22:41;17.90;;;10.95;;
64875;SDS011;51369;49.862;9.908;2023-04-25T06:25:07;16.17;;;9.65;;
64875;SDS011;51369;49.862;9.908;2023-04-25T06:27:33;16.15;;;10.20;;
64875;SDS011;51369;49.862;9.908;2023-04-25T06:30:00;16.60;;;9.68;;
64875;SDS011;51369;49.862;9.908;2023-04-25T06:32:25;16.13;;;9.52;;
64875;SDS011;51369;49.862;9.908;2023-04-25T06:34:52;18.65;;;9.27;;
64875;SDS011;51369;49.862;9.908;2023-04-25T06:37:18;15.63;;;9.48;;
64875;SDS011;51369;49.862;9.908;2023-04-25T06:39:43;16.30;;;9.70;;
64875;SDS011;51369;49.862;9.908;2023-04-25T06:42:09;14.70;;;9.02;;
64875;SDS011;51369;49.862;9.908;2023-04-25T06:44:44;19.65;;;9.38;;
64875;SDS011;51369;49.862;9.908;2023-04-25T06:47:11;11.68;;;8.45;;
64875;SDS011;51369;49.862;9.908;2023-04-25T06:49:37;15.75;;;8.90;;
64875;SDS011;51369;49.862;9.908;2023-04-25T06:52:02;15.38;;;8.18;;
64875;SDS011;51369;49.862;9.908;2023-04-25T06:54:28;16.50;;;8.77;;
64875;SDS011;51369;49.862;9.908;2023-04-25T06:57:01;10.82;;;7.25;;
64875;SDS011;51369;49.862;9.908;2023-04-25T06:59:27;14.43;;;7.57;;
64875;SDS011;51369;49.862;9.908;2023-04-25T07:01:53;14.57;;;7.43;;
64875;SDS011;51369;49.862;9.908;2023-04-25T07:04:23;11.98;;;6.85;;
64875;SDS011;51369;49.862;9.908;2023-04-25T07:06:53;10.15;;;6.07;;
64875;SDS011;51369;49.862;9.908;2023-04-25T07:09:25;10.45;;;6.38;;
64875;SDS011;51369;49.862;9.908;2023-04-25T07:11:51;10.75;;;5.43;;
64875;SDS011;51369;49.862;9.908;2023-04-25T07:14:16;12.30;;;6.30;;
64875;SDS011;51369;49.862;9.908;2023-04-25T07:16:42;8.70;;;5.15;;
64875;SDS011;51369;49.862;9.908;2023-04-25T07:19:07;12.20;;;5.18;;
64875;SDS011;51369;49.862;9.908;2023-04-25T07:21:33;7.95;;;5.05;;
64875;SDS011;51369;49.862;9.908;2023-04-25T07:24:01;8.68;;;3.97;;
64875;SDS011;51369;49.862;9.908;2023-04-25T07:26:32;10.77;;;4.55;;
64875;SDS011;51369;49.862;9.908;2023-04-25T07:29:16;16.50;;;5.18;;
64875;SDS011;51369;49.862;9.908;2023-04-25T07:31:41;14.40;;;4.82;;
64875;SDS011;51369;49.862;9.908;2023-04-25T07:34:07;17.50;;;4.40;;
64875;SDS011;51369;49.862;9.908;2023-04-25T07:36:34;9.90;;;4.40;;
64875;SDS011;51369;49.862;9.908;2023-04-25T07:38:59;11.80;;;4.43;;
64875;SDS011;51369;49.862;9.908;2023-04-25T07:41:24;7.45;;;4.10;;
64875;SDS011;51369;49.862;9.908;2023-04-25T07:43:50;13.00;;;4.10;;
64875;SDS011;51369;49.862;9.908;2023-04-25T07:46:16;11.45;;;3.95;;
64875;SDS011;51369;49.862;9.908;2023-04-25T07:48:42;6.38;;;3.72;;
64875;SDS011;51369;49.862;9.908;2023-04-25T07:51:07;8.55;;;3.20;;
64875;SDS011;51369;49.862;9.908;2023-04-25T07:53:35;7.70;;;2.97;;
64875;SDS011;51369;49.862;9.908;2023-04-25T07:56:05;9.00;;;3.33;;
64875;SDS011;51369;49.862;9.908;2023-04-25T07:58:33;5.18;;;3.03;;
64875;SDS011;51369;49.862;9.908;2023-04-25T08:01:01;8.48;;;3.10;;
64875;SDS011;51369;49.862;9.908;2023-04-25T08:03:45;8.93;;;3.38;;
64875;SDS011;51369;49.862;9.908;2023-04-25T08:06:18;8.30;;;3.05;;
64875;SDS011;51369;49.862;9.908;2023-04-25T08:08:55;6.68;;;3.33;;
64875;SDS011;51369;49.862;9.908;2023-04-25T08:11:26;7.38;;;3.10;;
64875;SDS011;51369;49.862;9.908;2023-04-25T08:13:52;6.20;;;3.28;;
64875;SDS011;51369;49.862;9.908;2023-04-25T08:16:17;6.68;;;3.28;;
64875;SDS011;51369;49.862;9.908;2023-04-25T08:18:42;6.60;;;3.45;;
64875;SDS011;51369;49.862;9.908;2023-04-25T08:21:08;7.30;;;3.60;;
64875;SDS011;51369;49.862;9.908;2023-04-25T08:23:36;10.63;;;3.97;;
64875;SDS011;51369;49.862;9.908;2023-04-25T08:26:07;6.18;;;3.13;;
64875;SDS011;51369;49.862;9.908;2023-04-25T08:28:35;7.07;;;3.03;;
64875;SDS011;51369;49.862;9.908;2023-04-25T08:31:01;7.65;;;3.38;;
64875;SDS011;51369;49.862;9.908;2023-04-25T08:36:05;5.20;;;3.13;;
64875;SDS011;51369;49.862;9.908;2023-04-25T08:38:31;4.32;;;3.03;;
64875;SDS011;51369;49.862;9.908;2023-04-25T08:40:56;6.28;;;2.88;;
64875;SDS011;51369;49.862;9.908;2023-04-25T08:43:24;6.18;;;2.75;;
64875;SDS011;51369;49.862;9.908;2023-04-25T08:45:50;5.63;;;2.67;;
64875;SDS011;51369;49.862;9.908;2023-04-25T08:48:42;5.83;;;2.43;;
64875;SDS011;51369;49.862;9.908;2023-04-25T08:51:10;5.95;;;2.50;;
64875;SDS011;51369;49.862;9.908;2023-04-25T08:53:41;4.68;;;2.47;;
64875;SDS011;51369;49.862;9.908;2023-04-25T08:56:08;3.47;;;2.13;;
64875;SDS011;51369;49.862;9.908;2023-04-25T08:58:35;3.80;;;2.30;;
64875;SDS011;51369;49.862;9.908;2023-04-25T09:01:01;4.43;;;2.85;;
64875;SDS011;51369;49.862;9.908;2023-04-25T09:03:31;3.00;;;2.42;;
64875;SDS011;51369;49.862;9.908;2023-04-25T09:05:56;6.68;;;2.80;;
64875;SDS011;51369;49.862;9.908;2023-04-25T09:08:23;2.92;;;2.15;;
64875;SDS011;51369;49.862;9.908;2023-04-25T09:10:48;2.88;;;2.05;;
64875;SDS011;51369;49.862;9.908;2023-04-25T09:13:14;4.32;;;2.17;;
64875;SDS011;51369;49.862;9.908;2023-04-25T09:16:08;4.05;;;2.17;;
64875;SDS011;51369;49.862;9.908;2023-04-25T09:19:00;4.43;;;2.33;;
64875;SDS011;51369;49.862;9.908;2023-04-25T09:21:27;3.90;;;2.58;;
64875;SDS011;51369;49.862;9.908;2023-04-25T09:23:52;4.93;;;2.38;;
64875;SDS011;51369;49.862;9.908;2023-04-25T09:26:19;2.72;;;2.30;;
64875;SDS011;51369;49.862;9.908;2023-04-25T09:28:46;5.85;;;2.22;;
64875;SDS011;51369;49.862;9.908;2023-04-25T09:31:24;4.95;;;2.63;;
64875;SDS011;51369;49.862;9.908;2023-04-25T09:33:58;3.60;;;2.40;;
64875;SDS011;51369;49.862;9.908;2023-04-25T09:36:26;5.47;;;2.67;;
64875;SDS011;51369;49.862;9.908;2023-04-25T09:39:15;7.32;;;2.70;;
64875;SDS011;51369;49.862;9.908;2023-04-25T09:41:42;4.68;;;2.88;;
64875;SDS011;51369;49.862;9.908;2023-04-25T09:44:08;3.63;;;2.60;;
64875;SDS011;51369;49.862;9.908;2023-04-25T09:46:36;6.60;;;3.25;;
64875;SDS011;51369;49.862;9.908;2023-04-25T09:49:07;4.75;;;2.83;;
64875;SDS011;51369;49.862;9.908;2023-04-25T09:54:24;3.35;;;2.60;;
64875;SDS011;51369;49.862;9.908;2023-04-25T09:56:57;6.38;;;3.05;;
64875;SDS011;51369;49.862;9.908;2023-04-25T09:59:36;3.83;;;2.85;;
64875;SDS011;51369;49.862;9.908;2023-04-25T10:02:05;5.32;;;2.72;;
64875;SDS011;51369;49.862;9.908;2023-04-25T10:04:36;8.68;;;3.20;;
64875;SDS011;51369;49.862;9.908;2023-04-25T10:07:06;6.97;;;3.00;;
64875;SDS011;51369;49.862;9.908;2023-04-25T10:09:33;6.72;;;3.20;;
64875;SDS011;51369;49.862;9.908;2023-04-25T10:12:02;4.30;;;3.22;;
64875;SDS011;51369;49.862;9.908;2023-04-25T10:14:29;7.72;;;3.25;;
64875;SDS011;51369;49.862;9.908;2023-04-25T10:16:57;5.50;;;2.83;;
64875;SDS011;51369;49.862;9.908;2023-04-25T10:19:23;3.83;;;2.80;;
64875;SDS011;51369;49.862;9.908;2023-04-25T10:24:21;4.53;;;3.13;;
64875;SDS011;51369;49.862;9.908;2023-04-25T10:26:47;4.93;;;3.13;;
64875;SDS011;51369;49.862;9.908;2023-04-25T10:29:15;4.97;;;3.03;;
64875;SDS011;51369;49.862;9.908;2023-04-25T10:31:47;4.57;;;2.88;;
64875;SDS011;51369;49.862;9.908;2023-04-25T10:34:13;6.47;;;3.05;;
64875;SDS011;51369;49.862;9.908;2023-04-25T10:36:38;6.10;;;3.15;;
64875;SDS011;51369;49.862;9.908;2023-04-25T10:39:05;4.68;;;2.90;;
64875;SDS011;51369;49.862;9.908;2023-04-25T10:41:47;3.78;;;3.13;;
64875;SDS011;51369;49.862;9.908;2023-04-25T10:44:17;5.88;;;3.47;;
64875;SDS011;51369;49.862;9.908;2023-04-25T10:46:44;6.80;;;3.35;;
64875;SDS011;51369;49.862;9.908;2023-04-25T10:49:10;8.10;;;3.15;;
64875;SDS011;51369;49.862;9.908;2023-04-25T10:55:02;9.63;;;3.15;;
64875;SDS011;51369;49.862;9.908;2023-04-25T10:57:41;4.75;;;2.88;;
64875;SDS011;51369;49.862;9.908;2023-04-25T11:00:14;4.55;;;2.95;;
64875;SDS011;51369;49.862;9.908;2023-04-25T11:02:41;6.20;;;2.83;;
64875;SDS011;51369;49.862;9.908;2023-04-25T11:05:08;7.85;;;2.65;;
64875;SDS011;51369;49.862;9.908;2023-04-25T11:10:08;5.38;;;3.17;;
64875;SDS011;51369;49.862;9.908;2023-04-25T11:12:34;6.15;;;3.00;;
64875;SDS011;51369;49.862;9.908;2023-04-25T11:15:03;5.85;;;2.83;;
64875;SDS011;51369;49.862;9.908;2023-04-25T11:17:30;7.03;;;3.35;;
64875;SDS011;51369;49.862;9.908;2023-04-25T11:19:56;5.85;;;2.90;;
64875;SDS011;51369;49.862;9.908;2023-04-25T11:22:21;5.20;;;2.80;;
64875;SDS011;51369;49.862;9.908;2023-04-25T11:24:47;4.93;;;2.95;;
64875;SDS011;51369;49.862;9.908;2023-04-25T11:27:12;7.22;;;3.10;;
64875;SDS011;51369;49.862;9.908;2023-04-25T11:29:38;3.63;;;2.58;;
64875;SDS011;51369;49.862;9.908;2023-04-25T11:32:03;4.35;;;2.80;;
64875;SDS011;51369;49.862;9.908;2023-04-25T11:34:30;8.35;;;2.95;;
64875;SDS011;51369;49.862;9.908;2023-04-25T11:36:57;9.82;;;3.38;;
64875;SDS011;51369;49.862;9.908;2023-04-25T11:39:24;4.53;;;2.80;;
64875;SDS011;51369;49.862;9.908;2023-04-25T11:41:51;4.45;;;2.92;;
64875;SDS011;51369;49.862;9.908;2023-04-25T11:44:18;4.60;;;2.97;;
64875;SDS011;51369;49.862;9.908;2023-04-25T11:46:44;6.47;;;3.20;;
64875;SDS011;51369;49.862;9.908;2023-04-25T11:49:10;6.43;;;2.88;;
64875;SDS011;51369;49.862;9.908;2023-04-25T11:51:40;4.32;;;2.63;;
64875;SDS011;51369;49.862;9.908;2023-04-25T11:54:06;5.93;;;3.30;;
64875;SDS011;51369;49.862;9.908;2023-04-25T11:56:31;5.57;;;2.88;;
64875;SDS011;51369;49.862;9.908;2023-04-25T11:59:06;4.97;;;2.95;;
64875;SDS011;51369;49.862;9.908;2023-04-25T12:01:33;6.65;;;3.22;;
64875;SDS011;51369;49.862;9.908;2023-04-25T12:06:44;6.75;;;3.38;;
64875;SDS011;51369;49.862;9.908;2023-04-25T12:09:19;5.32;;;3.20;;
64875;SDS011;51369;49.862;9.908;2023-04-25T12:11:47;4.95;;;3.38;;
64875;SDS011;51369;49.862;9.908;2023-04-25T12:14:20;7.10;;;3.45;;
64875;SDS011;51369;49.862;9.908;2023-04-25T12:16:49;5.85;;;3.60;;
64875;SDS011;51369;49.862;9.908;2023-04-25T12:19:16;5.93;;;3.35;;
64875;SDS011;51369;49.862;9.908;2023-04-25T12:21:42;6.40;;;3.75;;
64875;SDS011;51369;49.862;9.908;2023-04-25T12:24:13;8.63;;;3.88;;
64875;SDS011;51369;49.862;9.908;2023-04-25T12:26:47;9.38;;;3.92;;
64875;SDS011;51369;49.862;9.908;2023-04-25T12:29:32;7.97;;;4.05;;
64875;SDS011;51369;49.862;9.908;2023-04-25T12:31:58;4.82;;;3.72;;
64875;SDS011;51369;49.862;9.908;2023-04-25T12:34:24;8.23;;;3.88;;
64875;SDS011;51369;49.862;9.908;2023-04-25T12:36:50;8.43;;;3.88;;
64875;SDS011;51369;49.862;9.908;2023-04-25T12:39:17;5.03;;;3.33;;
64875;SDS011;51369;49.862;9.908;2023-04-25T12:41:44;5.78;;;3.50;;
64875;SDS011;51369;49.862;9.908;2023-04-25T12:44:12;7.75;;;4.13;;
64875;SDS011;51369;49.862;9.908;2023-04-25T12:46:38;10.07;;;4.30;;
64875;SDS011;51369;49.862;9.908;2023-04-25T12:49:04;8.73;;;4.45;;
64875;SDS011;51369;49.862;9.908;2023-04-25T12:51:31;7.05;;;4.47;;
64875;SDS011;51369;49.862;9.908;2023-04-25T12:53:58;6.03;;;4.13;;
64875;SDS011;51369;49.862;9.908;2023-04-25T12:56:24;6.07;;;4.40;;
64875;SDS011;51369;49.862;9.908;2023-04-25T12:58:50;5.72;;;4.32;;
64875;SDS011;51369;49.862;9.908;2023-04-25T13:01:15;8.73;;;4.60;;
64875;SDS011;51369;49.862;9.908;2023-04-25T13:03:41;10.18;;;4.10;;
64875;SDS011;51369;49.862;9.908;2023-04-25T13:06:06;7.15;;;3.53;;
64875;SDS011;51369;49.862;9.908;2023-04-25T13:08:32;10.07;;;4.53;;
64875;SDS011;51369;49.862;9.908;2023-04-25T13:10:58;6.15;;;4.50;;
64875;SDS011;51369;49.862;9.908;2023-04-25T13:13:23;6.93;;;4.38;;
64875;SDS011;51369;49.862;9.908;2023-04-25T13:15:48;8.55;;;4.57;;
64875;SDS011;51369;49.862;9.908;2023-04-25T13:18:14;4.88;;;3.88;;
64875;SDS011;51369;49.862;9.908;2023-04-25T13:20:40;9.13;;;4.70;;
64875;SDS011;51369;49.862;9.908;2023-04-25T13:23:05;8.70;;;4.70;;
64875;SDS011;51369;49.862;9.908;2023-04-25T13:25:31;7.32;;;4.55;;
64875;SDS011;51369;49.862;9.908;2023-04-25T13:27:56;6.80;;;3.53;;
64875;SDS011;51369;49.862;9.908;2023-04-25T13:30:21;10.18;;;4.60;;
64875;SDS011;51369;49.862;9.908;2023-04-25T13:32:47;7.03;;;4.13;;
64875;SDS011;51369;49.862;9.908;2023-04-25T13:35:13;6.22;;;3.90;;
64875;SDS011;51369;49.862;9.908;2023-04-25T13:37:39;8.25;;;4.13;;
64875;SDS011;51369;49.862;9.908;2023-04-25T13:40:08;6.25;;;3.42;;
64875;SDS011;51369;49.862;9.908;2023-04-25T13:42:36;7.77;;;3.33;;
64875;SDS011;51369;49.862;9.908;2023-04-25T13:45:03;5.07;;;3.60;;
64875;SDS011;51369;49.862;9.908;2023-04-25T13:47:29;8.20;;;3.88;;
64875;SDS011;51369;49.862;9.908;2023-04-25T13:49:55;7.13;;;3.53;;
64875;SDS011;51369;49.862;9.908;2023-04-25T13:52:21;6.85;;;3.97;;
64875;SDS011;51369;49.862;9.908;2023-04-25T13:54:46;7.45;;;3.47;;
64875;SDS011;51369;49.862;9.908;2023-04-25T13:57:13;9.85;;;4.10;;
64875;SDS011;51369;49.862;9.908;2023-04-25T13:59:39;6.13;;;3.42;;
64875;SDS011;51369;49.862;9.908;2023-04-25T14:02:06;5.45;;;2.95;;
64875;SDS011;51369;49.862;9.908;2023-04-25T14:04:32;5.72;;;3.28;;
64875;SDS011;51369;49.862;9.908;2023-04-25T14:06:58;6.50;;;3.67;;
64875;SDS011;51369;49.862;9.908;2023-04-25T14:09:24;7.85;;;3.35;;
64875;SDS011;51369;49.862;9.908;2023-04-25T14:11:53;4.97;;;3.17;;
64875;SDS011;51369;49.862;9.908;2023-04-25T14:14:19;6.68;;;3.35;;
64875;SDS011;51369;49.862;9.908;2023-04-25T14:16:46;5.93;;;3.33;;
64875;SDS011;51369;49.862;9.908;2023-04-25T14:19:15;6.57;;;3.13;;
64875;SDS011;51369;49.862;9.908;2023-04-25T14:21:44;6.15;;;3.08;;
64875;SDS011;51369;49.862;9.908;2023-04-25T14:24:09;5.72;;;2.95;;
64875;SDS011;51369;49.862;9.908;2023-04-25T14:26:38;4.28;;;2.55;;
64875;SDS011;51369;49.862;9.908;2023-04-25T14:29:04;6.55;;;2.70;;
64875;SDS011;51369;49.862;9.908;2023-04-25T14:31:31;7.50;;;3.05;;
64875;SDS011;51369;49.862;9.908;2023-04-25T14:33:57;6.78;;;2.92;;
64875;SDS011;51369;49.862;9.908;2023-04-25T14:36:22;6.45;;;2.85;;
64875;SDS011;51369;49.862;9.908;2023-04-25T14:38:48;8.60;;;2.83;;
64875;SDS011;51369;49.862;9.908;2023-04-25T14:41:13;4.63;;;2.80;;
64875;SDS011;51369;49.862;9.908;2023-04-25T14:43:38;4.57;;;2.53;;
64875;SDS011;51369;49.862;9.908;2023-04-25T14:46:06;4.15;;;2.58;;
64875;SDS011;51369;49.862;9.908;2023-04-25T14:48:32;8.90;;;3.25;;
64875;SDS011;51369;49.862;9.908;2023-04-25T14:50:58;5.47;;;2.90;;
64875;SDS011;51369;49.862;9.908;2023-04-25T14:53:25;6.82;;;3.30;;
64875;SDS011;51369;49.862;9.908;2023-04-25T14:55:50;7.53;;;3.15;;
64875;SDS011;51369;49.862;9.908;2023-04-25T14:58:15;6.05;;;2.90;;
64875;SDS011;51369;49.862;9.908;2023-04-25T15:00:41;7.28;;;2.95;;
64875;SDS011;51369;49.862;9.908;2023-04-25T15:03:06;8.10;;;2.92;;
64875;SDS011;51369;49.862;9.908;2023-04-25T15:05:33;7.20;;;3.15;;
64875;SDS011;51369;49.862;9.908;2023-04-25T15:07:59;7.00;;;3.00;;
64875;SDS011;51369;49.862;9.908;2023-04-25T15:10:25;5.43;;;2.75;;
64875;SDS011;51369;49.862;9.908;2023-04-25T15:12:50;4.68;;;2.90;;